Euskara    
Meteorología y climatología de Navarra
Datos de la estación - Meteo Navarra

Estación de Aoiz GN

Altitud 534 m.


Datos desde el 14/01/2021 hasta el 15/01/2021 en horario solar
Los datos son PROVISIONALES

Anterior Página 1 de 1 Siguiente Descargar: Formato para Excel 2000 o superior   Formato csv   Formato para OpenOffice Calc
Fecha Temperatura Humedad relativa Radiación global Insolación Precipitación Vel. viento 10 m Vel. viento 10 m Dir. viento 10 m
°C % W/m² s l/m² m/s km/h °
14/01/2021 0:00 6.6 73 0.0 0 0.0 2.6 9.2 308
14/01/2021 0:10 6.4 73 0.0 0 0.0 3.0 10.9 290
14/01/2021 0:20 6.4 74 0.0 0 0.0 2.8 10.2 316
14/01/2021 0:30 6.7 72 0.0 0 0.0 3.2 11.5 310
14/01/2021 0:40 6.8 72 0.0 0 0.0 3.2 11.3 306
14/01/2021 0:50 6.8 73 0.0 0 0.0 2.0 7.3 315
14/01/2021 1:00 6.8 73 0.0 0 0.0 2.4 8.5 313
14/01/2021 1:10 6.9 73 0.0 0 0.0 2.6 9.4 305
14/01/2021 1:20 6.7 73 0.0 0 0.0 1.6 5.7 313
14/01/2021 1:30 6.6 74 0.0 0 0.0 2.3 8.2 311
14/01/2021 1:40 6.6 74 0.0 0 0.0 2.6 9.3 308
14/01/2021 1:50 6.7 73 0.0 0 0.0 1.6 5.8 322
14/01/2021 2:00 6.8 73 0.0 0 0.0 1.7 6.1 346
14/01/2021 2:10 6.7 74 0.0 0 0.0 2.6 9.2 331
14/01/2021 2:20 6.7 74 0.0 0 0.0 2.9 10.5 327
14/01/2021 2:30 6.7 73 0.0 0 0.0 3.2 11.6 332
14/01/2021 2:40 6.7 71 0.0 0 0.0 3.4 12.1 333
14/01/2021 2:50 6.5 72 0.0 0 0.0 2.5 8.9 317
14/01/2021 3:00 6.6 71 0.0 0 0.0 2.4 8.5 271
14/01/2021 3:10 6.4 72 0.0 0 0.0 2.0 7.2 292
14/01/2021 3:20 6.8 71 0.0 0 0.0 3.0 10.8 311
14/01/2021 3:30 6.7 72 0.0 0 0.0 1.9 6.9 315
14/01/2021 3:40 6.7 72 0.0 0 0.0 2.4 8.6 323
14/01/2021 3:50 6.8 72 0.0 0 0.0 2.0 7.2 307
14/01/2021 4:00 6.8 72 0.0 0 0.0 1.9 7.0 329
14/01/2021 4:10 6.7 73 0.0 0 0.0 1.9 6.8 298
14/01/2021 4:20 6.9 73 0.0 0 0.0 2.7 9.5 288
14/01/2021 4:30 6.9 73 0.0 0 0.0 2.4 8.7 317
14/01/2021 4:40 6.9 74 0.0 0 0.0 3.0 10.7 315
14/01/2021 4:50 6.8 74 0.0 0 0.0 3.2 11.6 316
14/01/2021 5:00 6.9 74 0.0 0 0.0 2.8 10.2 317
14/01/2021 5:10 6.8 74 0.0 0 0.0 3.2 11.7 307
14/01/2021 5:20 6.8 74 0.0 0 0.0 3.2 11.5 318
14/01/2021 5:30 6.7 74 0.0 0 0.0 3.1 11.2 312
14/01/2021 5:40 6.5 75 0.0 0 0.0 3.4 12.3 320
14/01/2021 5:50 6.5 74 0.0 0 0.0 3.2 11.6 317
14/01/2021 6:00 6.4 75 0.0 0 0.0 3.0 10.7 327
14/01/2021 6:10 6.5 72 0.0 0 0.0 2.9 10.5 323
14/01/2021 6:20 6.4 72 0.0 0 0.0 2.7 9.9 328
14/01/2021 6:30 6.3 73 0.0 0 0.0 3.3 11.9 303
14/01/2021 6:40 6.3 75 0.0 0 0.0 2.6 9.3 307
14/01/2021 6:50 6.3 75 0.0 0 0.0 2.5 9.0 322
14/01/2021 7:00 6.2 76 0.0 0 0.0 2.8 10.0 316
14/01/2021 7:10 6.2 75 0.0 0 0.0 3.8 13.5 311
14/01/2021 7:20 6.3 75 0.0 0 0.0 3.2 11.4 299
14/01/2021 7:30 6.2 76 0.0 0 0.0 3.7 13.1 300
14/01/2021 7:40 6.3 77 0.0 0 0.0 4.0 14.5 295
14/01/2021 7:50 6.3 76 2.3 0 0.0 3.0 10.7 326
14/01/2021 8:00 6.4 76 25.7 136 0.0 2.6 9.4 330
14/01/2021 8:10 6.6 75 33.7 316 0.0 2.5 8.8 323
14/01/2021 8:20 6.6 75 30.1 0 0.0 2.8 10.2 309
14/01/2021 8:30 6.7 76 44.6 0 0.0 3.1 11.3 317
14/01/2021 8:40 6.8 76 56.7 0 0.0 3.1 11.1 318
14/01/2021 8:50 6.8 76 63.6 0 0.0 3.4 12.3 323
14/01/2021 9:00 6.9 76 47.2 0 0.0 3.3 11.8 322
14/01/2021 9:10 6.9 77 46.5 0 0.0 2.6 9.2 325
14/01/2021 9:20 6.8 77 72.4 0 0.0 3.1 11.2 337
14/01/2021 9:30 7.0 76 83.5 0 0.0 3.3 12.0 332
14/01/2021 9:40 7.2 75 99.6 0 0.0 3.9 14.0 337
14/01/2021 9:50 7.1 75 99.9 0 0.0 4.3 15.5 335
14/01/2021 10:00 7.2 75 128.8 58 0.0 4.1 14.8 340
14/01/2021 10:10 7.5 74 141.1 42 0.0 4.4 15.7 339
14/01/2021 10:20 7.7 73 206.7 250 0.0 5.3 19.0 338
14/01/2021 10:30 8.0 72 331.9 356 0.0 4.9 17.6 327
14/01/2021 10:40 8.3 71 313.8 432 0.0 4.3 15.4 326
14/01/2021 10:50 8.4 71 434.5 600 0.0 4.3 15.4 342
14/01/2021 11:00 9.1 68 592.5 600 0.0 3.7 13.5 348
14/01/2021 11:10 9.2 66 572.6 600 0.0 3.3 11.7 344
14/01/2021 11:20 9.2 66 462.2 600 0.0 2.7 9.6 346
14/01/2021 11:30 8.1 69 258.9 542 0.0 2.9 10.4 342
14/01/2021 11:40 8.0 69 330.5 590 0.0 3.0 10.7 336
14/01/2021 11:50 7.8 68 210.0 0 0.0 3.1 11.1 342
14/01/2021 12:00 7.9 69 213.3 36 0.0 3.1 11.1 342
14/01/2021 12:10 7.7 69 281.8 394 0.0 3.5 12.5 343
14/01/2021 12:20 8.3 67 315.2 572 0.0 3.5 12.5 322
14/01/2021 12:30 7.9 68 240.2 230 0.0 2.7 9.9 298
14/01/2021 12:40 8.0 68 226.6 78 0.0 2.5 9.0 314
14/01/2021 12:50 8.1 68 281.9 580 0.0 3.9 14.0 328
14/01/2021 13:00 8.2 67 276.8 498 0.0 3.5 12.7 342
14/01/2021 13:10 8.4 65 303.2 600 0.0 2.7 9.6 317
14/01/2021 13:20 8.6 64 372.4 600 0.0 2.9 10.4 352
14/01/2021 13:30 8.4 65 244.7 576 0.0 2.7 9.6 345
14/01/2021 13:40 8.1 65 202.7 124 0.0 3.2 11.4 343
14/01/2021 13:50 8.1 65 268.1 456 0.0 1.3 4.8 304
14/01/2021 14:00 8.5 64 304.1 516 0.0 1.3 4.8 260
14/01/2021 14:10 8.7 65 226.1 246 0.0 3.9 14.1 303
14/01/2021 14:20 8.1 68 182.5 210 0.0 3.7 13.4 315
14/01/2021 14:30 8.1 69 157.5 0 0.0 3.2 11.3 351
14/01/2021 14:40 8.0 70 132.8 0 0.0 2.4 8.7 353
14/01/2021 14:50 7.9 70 157.6 230 0.0 1.8 6.6 314
14/01/2021 15:00 8.0 71 132.3 114 0.0 2.9 10.4 304
14/01/2021 15:10 7.9 72 126.2 52 0.0 2.3 8.1 327
14/01/2021 15:20 8.0 72 158.0 472 0.0 1.4 4.9 342
14/01/2021 15:30 8.1 73 207.2 600 0.0 2.0 7.1 346
14/01/2021 15:40 8.4 72 231.2 568 0.0 1.7 6.1 20
14/01/2021 15:50 8.3 72 130.3 382 0.0 1.9 6.8 46
14/01/2021 16:00 7.8 75 53.6 0 0.0 2.0 7.1 32
14/01/2021 16:10 7.7 75 51.6 20 0.0 2.8 10.2 296
14/01/2021 16:20 7.6 76 29.3 0 0.0 3.0 10.6 313
14/01/2021 16:30 7.6 76 21.7 0 0.0 3.1 11.3 300
14/01/2021 16:40 7.6 77 2.5 0 0.0 3.0 10.9 297
14/01/2021 16:50 7.6 77 0.0 0 0.0 3.2 11.6 303
14/01/2021 17:00 7.3 81 0.0 0 0.0 2.7 9.9 299
14/01/2021 17:10 7.0 84 0.0 0 0.0 2.9 10.6 298
14/01/2021 17:20 6.9 84 0.0 0 0.0 2.9 10.3 297
14/01/2021 17:30 6.8 85 0.0 0 0.0 3.0 10.9 291
14/01/2021 17:40 6.8 86 0.0 0 0.0 3.2 11.5 290
14/01/2021 17:50 6.7 87 0.0 0 0.0 3.0 10.8 297
14/01/2021 18:00 6.7 88 0.0 0 0.0 2.8 10.0 297
14/01/2021 18:10 6.6 90 0.0 0 0.0 3.1 11.1 294
14/01/2021 18:20 6.6 91 0.0 0 0.0 3.1 11.2 297
14/01/2021 18:30 6.7 91 0.0 0 0.0 3.7 13.3 290
14/01/2021 18:40 6.6 92 0.0 0 0.0 2.8 10.0 296
14/01/2021 18:50 6.5 93 0.0 0 0.0 2.6 9.4 287
14/01/2021 19:00 6.4 95 0.0 0 0.1 3.2 11.6 284
14/01/2021 19:10 6.2 95 0.0 0 0.0 3.6 13.0 283
14/01/2021 19:20 6.2 95 0.0 0 0.0 3.8 13.6 287
14/01/2021 19:30 6.2 95 0.0 0 0.1 3.9 14.0 284
14/01/2021 19:40 6.3 95 0.0 0 0.0 3.7 13.3 279
14/01/2021 19:50 6.4 95 0.0 0 0.0 4.0 14.3 281
14/01/2021 20:00 6.4 95 0.0 0 0.0 3.3 11.8 293
14/01/2021 20:10 6.5 94 0.0 0 0.0 3.2 11.5 285
14/01/2021 20:20 6.6 94 0.0 0 0.0 3.1 11.0 284
14/01/2021 20:30 6.6 94 0.0 0 0.0 3.3 12.0 294
14/01/2021 20:40 6.8 94 0.0 0 0.0 3.6 12.9 289
14/01/2021 20:50 6.8 94 0.0 0 0.0 3.0 10.8 290
14/01/2021 21:00 6.8 94 0.0 0 0.2 3.8 13.6 286
14/01/2021 21:10 6.8 94 0.0 0 0.1 2.8 9.9 289
14/01/2021 21:20 6.8 95 0.0 0 0.3 1.8 6.3 298
14/01/2021 21:30 6.9 93 0.0 0 0.0 1.5 5.4 293
14/01/2021 21:40 7.1 89 0.0 0 0.0 2.0 7.3 301
14/01/2021 21:50 7.7 78 0.0 0 0.0 4.2 15.3 297
14/01/2021 22:00 7.4 79 0.0 0 0.0 4.0 14.3 297
14/01/2021 22:10 7.5 80 0.0 0 0.0 3.7 13.1 294
14/01/2021 22:20 7.4 81 0.0 0 0.0 2.5 9.0 298
14/01/2021 22:30 7.3 83 0.0 0 0.0 2.0 7.3 300
14/01/2021 22:40 7.0 86 0.0 0 0.0 2.3 8.4 292
14/01/2021 22:50 7.0 86 0.0 0 0.0 2.9 10.5 295
14/01/2021 23:00 7.1 82 0.0 0 0.0 3.0 10.9 304
14/01/2021 23:10 7.1 76 0.0 0 0.0 4.3 15.4 291
14/01/2021 23:20 7.0 75 0.0 0 0.0 4.0 14.3 294
14/01/2021 23:30 6.8 76 0.0 0 0.0 4.1 14.7 295
14/01/2021 23:40 6.9 72 0.0 0 0.0 4.3 15.5 296
14/01/2021 23:50 7.0 70 0.0 0 0.0 4.5 16.2 302
Anterior Página 1 de 1 Siguiente

NOTA: Tipo de datos según el color:
   - Valores diarios o 10 minutos correctos
   - Valores diarios calculados a partir de un número de datos 10 minutos menor que 144 y mayor que 120, o de un número de datos semihorarios menor que 48 y mayor que 40 (caso de las estaciones de INTIA Y Ministerio)
   - Valores diez minutos estimados


Contacto        Enlaces        Aviso legal